Terminal Aerodrome Forecast
Issued by NWS

Home | Current Version | Previous Version | Text Only | Print | Product List | Glossary On
Versions: 1 2 3 4 5 6 7 8 9 10 11 12 13 14 15 16 17 18
945
FTUS41 KPBZ 291026 AAA
TAFLBE
TAF AMD
KLBE 291026Z 2910/3006 19005KT P6SM -SHRA OVC060 WS020/24040KT
      TEMPO 2910/2912 5SM -TSRA OVC035CB
     FM291900 26007KT 4SM -TSRA BKN040CB
     FM292200 33003KT P6SM BKN250=

USA.gov is the U.S. government's official web portal to all federal, state and local government web resources and services.